• Join FlightAware (Why Join?)
  • Login
  • US Flag 
10:06PM EDT


 

Airport Tracker/Info


-or-


 

Live Flight TrackerFlight Track Log ✈ UAL70 ✈ 01-May-2012 ✈ KEWR - EHAM / AMS

Flight Track Log - Related Links

Times and Time Zones

All times are in EDT time to prevent confusion due to time zone crossing. See the UAL70 flight status page for this flight to view local times or setup timezone preferences in your user account.

Time Position Orientation Groundspeed Altitude Reporting Facility
EDT Latitude Longitude Course Direction KTS MPH feet Rate Location/Type
06:31PM 40.7167 -74.1500 37° Northeast 174 200 1,600  Level New York TRACON
06:32PM 40.7667 -74.1000 40° Northeast 222 255 2,800 1,560 Climbing New York TRACON
06:35PM 40.9319 -73.9191 61° Northeast 284 327 7,600 1,800 Climbing FlightAware ADS-B
06:35PM 40.9438 -73.8912 61° Northeast 284 327 8,500 2,460 Climbing FlightAware ADS-B
06:36PM 40.9577 -73.8585 61° Northeast 291 335 9,200 2,160 Climbing FlightAware ADS-B
06:36PM 40.9692 -73.8312 56° Northeast 299 344 9,900 1,860 Climbing FlightAware ADS-B
06:36PM 40.9900 -73.7904 51° Northeast 313 360 10,600 1,500 Climbing FlightAware ADS-B
06:38PM 41.0693 -73.6620 59° Northeast 364 419 12,600 1,800 Climbing FlightAware ADS-B
06:38PM 41.0939 -73.6078 50° Northeast 355 409 14,000 2,040 Climbing Boston Center
06:39PM 41.1531 -73.5153 55° Northeast 361 415 15,800 1,980 Climbing Boston Center
06:40PM 41.2211 -73.3867 56° Northeast 383 441 18,000 1,800 Climbing Boston Center
06:41PM 41.2781 -73.2742 57° Northeast 393 452 19,500 1,680 Climbing Boston Center
06:42PM 41.3394 -73.1478 55° Northeast 398 458 21,400 1,680 Climbing Boston Center
06:43PM 41.4069 -73.0214 56° Northeast 403 464 22,900 1,440 Climbing Boston Center
06:44PM 41.4742 -72.8889 58° Northeast 415 478 24,300 1,500 Climbing Boston Center
06:45PM 41.5433 -72.7397 56° Northeast 426 490 25,900 1,320 Climbing Boston Center
06:46PM 41.6125 -72.6011 57° Northeast 433 498 27,000 1,020 Climbing Boston Center
06:47PM 41.6814 -72.4594 60° Northeast 439 505 28,000 960 Climbing Boston Center
06:48PM 41.7481 -72.3064 58° Northeast 452 520 29,000 1,020 Climbing Boston Center
06:49PM 41.8164 -72.1589 60° Northeast 458 527 30,100 1,080 Climbing Boston Center
06:50PM 41.8828 -72.0050 55° Northeast 463 533 31,200 1,200 Climbing Boston Center
06:51PM 41.9550 -71.8650 48° Northeast 463 533 32,500 1,200 Climbing Boston Center
06:52PM 42.0419 -71.7356 47° Northeast 456 525 33,600 960 Climbing Boston Center
06:53PM 42.1264 -71.6117 45° Northeast 456 525 34,500 660 Climbing Boston Center
06:54PM 42.2069 -71.5011 49° Northeast 451 519 35,000 240 Climbing Boston Center
06:55PM 42.2892 -71.3736 48° Northeast 451 519 35,000  Level Boston Center
06:56PM 42.3753 -71.2456 48° Northeast 451 519 35,000  Level Boston Center
06:57PM 42.4656 -71.1089 48° Northeast 446 513 35,000  Level Boston Center
06:58PM 42.5514 -70.9803 49° Northeast 451 519 35,000  Level Boston Center
06:59PM 42.6353 -70.8483 48° Northeast 451 519 35,000  Level Boston Center
07:00PM 42.7208 -70.7189 48° Northeast 451 519 35,000  Level Boston Center
07:01PM 42.8042 -70.5922 49° Northeast 451 519 35,000  Level Boston Center
07:02PM 42.8897 -70.4592 49° Northeast 451 519 35,000  Level Boston Center
07:03PM 42.9728 -70.3289 48° Northeast 451 519 35,000  Level Boston Center
07:04PM 43.0558 -70.2008 50° Northeast 451 519 35,000  Level Boston Center
07:05PM 43.1303 -70.0786 49° Northeast 451 519 35,000  Level Boston Center
07:06PM 43.2150 -69.9444 49° Northeast 451 519 35,000  Level Boston Center
07:07PM 43.2997 -69.8097 49° Northeast 456 525 35,000  Level Boston Center
07:08PM 43.3861 -69.6717 49° Northeast 456 525 35,000  Level Boston Center
07:09PM 43.4742 -69.5331 49° Northeast 467 537 35,000  Level Boston Center
07:10PM 43.5622 -69.3942 50° Northeast 467 537 35,000  Level Boston Center
07:11PM 43.6481 -69.2519 48° Northeast 472 543 35,000  Level Boston Center
07:12PM 43.7358 -69.1153 50° Northeast 472 543 35,000  Level Boston Center
07:13PM 43.8233 -68.9722 50° Northeast 472 543 35,000  Level Boston Center
07:14PM 43.9108 -68.8286 49° Northeast 472 543 35,000  Level Boston Center
07:15PM 43.9958 -68.6908 50° Northeast 472 543 35,000  Level Boston Center
07:16PM 44.0908 -68.5344 50° Northeast 472 543 35,000  Level Boston Center
07:17PM 44.1736 -68.3958 50° Northeast 472 543 35,000  Level Boston Center
07:18PM 44.2581 -68.2567 50° Northeast 472 543 35,000  Level Boston Center
07:19PM 44.3425 -68.1142 50° Northeast 472 543 35,000  Level Boston Center
07:20PM 44.4247 -67.9744 50° Northeast 472 543 35,000  Level Boston Center
07:21PM 44.5089 -67.8339 50° Northeast 472 543 35,000  Level Boston Center
07:22PM 44.5928 -67.6933 51° Northeast 472 543 35,000  Level Boston Center
07:23PM 44.6744 -67.5494 50° Northeast 467 537 35,000  Level Boston Center
07:24PM 44.7483 -67.4233 50° Northeast 472 543 35,000  Level Boston Center
07:25PM 44.8317 -67.2814 51° Northeast 472 543 35,000  Level Boston Center
07:26PM 44.9128 -67.1422 48° Northeast 467 537 35,000  Level Boston Center
07:28PM 45.0333 -66.9500 45° Northeast 470 541 35,000  Level Moncton Center
07:29PM 45.1167 -66.8333 43° Northeast 460 529 35,000  Level Moncton Center
07:30PM 45.2167 -66.7000 48° Northeast 460 529 35,000  Level Moncton Center
07:31PM 45.3000 -66.5667 46° Northeast 460 529 35,000  Level Moncton Center
07:32PM 45.4000 -66.4167 44° Northeast 460 529 35,000  Level Moncton Center
07:33PM 45.4833 -66.3000 39° Northeast 470 541 35,000  Level Moncton Center
07:34PM 45.5833 -66.1833 48° Northeast 470 541 35,000  Level Moncton Center
07:35PM 45.6667 -66.0500 51° Northeast 470 541 35,000  Level Moncton Center
07:36PM 45.7500 -65.9000 43° Northeast 470 541 35,000  Level Moncton Center
07:37PM 45.8500 -65.7667 44° Northeast 470 541 35,000  Level Moncton Center
07:38PM 45.9333 -65.6500 46° Northeast 470 541 35,000  Level Moncton Center
07:39PM 46.0333 -65.5000 48° Northeast 470 541 35,000  Level Moncton Center
07:40PM 46.1167 -65.3667 44° Northeast 470 541 35,000  Level Moncton Center
07:41PM 46.2000 -65.2500 42° Northeast 470 541 35,000  Level Moncton Center
07:42PM 46.3167 -65.1000 51° Northeast 470 541 35,000  Level Moncton Center
07:43PM 46.4000 -64.9500 43° Northeast 470 541 35,000  Level Moncton Center
07:44PM 46.5000 -64.8167 48° Northeast 470 541 35,000  Level Moncton Center
07:45PM 46.5833 -64.6833 48° Northeast 470 541 35,000  Level Moncton Center
07:46PM 46.6667 -64.5500 46° Northeast 470 541 35,000  Level Moncton Center
07:47PM 46.7667 -64.4000 48° Northeast 470 541 35,000  Level Moncton Center
07:48PM 46.8500 -64.2667 48° Northeast 460 529 35,000  Level Gander Center
07:49PM 46.9333 -64.1333 47° Northeast 460 529 35,000  Level Moncton Center
07:50PM 47.0167 -64.0000 46° Northeast 460 529 35,000  Level Moncton Center
07:51PM 47.1167 -63.8500 44° Northeast 460 529 35,000  Level Moncton Center
07:52PM 47.2000 -63.7333 51° Northeast 450 518 35,000  Level Moncton Center
07:53PM 47.2833 -63.5833 47° Northeast 460 529 35,000  Level Moncton Center
07:54PM 47.3667 -63.4500 51° Northeast 450 518 35,000  Level Moncton Center
07:55PM 47.4500 -63.3000 38° Northeast 460 529 35,000  Level Moncton Center
07:56PM 47.5500 -63.1833 57° Northeast 460 529 35,000  Level Moncton Center
07:57PM 47.6167 -63.0333 50° Northeast 460 529 35,000  Level Moncton Center
07:58PM 47.7000 -62.8833 47° Northeast 460 529 35,000  Level Moncton Center
07:59PM 47.7833 -62.7500 45° Northeast 460 529 35,000  Level Moncton Center
08:00PM 47.8833 -62.6000 47° Northeast 450 518 35,000  Level Moncton Center
08:01PM 47.9667 -62.4667 43° Northeast 460 529 35,000  Level Moncton Center
08:02PM 48.0500 -62.3500 53° Northeast 460 529 35,000  Level Moncton Center
08:03PM 48.1333 -62.1833 50° Northeast 460 529 35,000  Level Moncton Center
08:04PM 48.2167 -62.0333 47° Northeast 460 529 35,000  Level Moncton Center
08:05PM 48.3000 -61.9000 50° Northeast 460 529 35,000  Level Moncton Center
08:06PM 48.3833 -61.7500 47° Northeast 450 518 35,000  Level Moncton Center
08:07PM 48.4667 -61.6167 50° Northeast 460 529 35,000  Level Moncton Center
08:08PM 48.5500 -61.4667 47° Northeast 450 518 35,000  Level Moncton Center
08:09PM 48.6333 -61.3333 53° Northeast 460 529 35,000  Level Moncton Center
08:10PM 48.7167 -61.1667 46° Northeast 450 518 35,000  Level Moncton Center
08:11PM 48.8000 -61.0333 50° Northeast 450 518 35,000  Level Moncton Center
08:12PM 48.8833 -60.8833 46° Northeast 450 518 35,000  Level Moncton Center
08:13PM 48.9667 -60.7500 53° Northeast 450 518 35,000  Level Moncton Center
08:14PM 49.0500 -60.5833 53° Northeast 450 518 35,000  Level Moncton Center
08:15PM 49.1167 -60.4500 50° Northeast 450 518 35,000  Level Moncton Center
08:16PM 49.2000 -60.3000 46° Northeast 450 518 35,000  Level Moncton Center
08:17PM 49.2833 -60.1667 46° Northeast 440 506 35,000  Level Moncton Center
08:18PM 49.3667 -60.0333 52° Northeast 440 506 35,000  Level Moncton Center
08:19PM 49.4500 -59.8667 56° Northeast 440 506 35,000  Level Gander Center
08:20PM 49.5167 -59.7167 46° Northeast 440 506 35,000  Level Gander Center
08:21PM 49.6000 -59.5833 52° Northeast 440 506 35,000  Level Moncton Center
08:22PM 49.6667 -59.4500 52° Northeast 430 495 35,000  Level Moncton Center
08:23PM 49.7500 -59.2833 46° Northeast 430 495 35,000  Level Moncton Center
08:24PM 49.8333 -59.1500 46° Northeast 440 506 35,000  Level Moncton Center
08:25PM 49.9167 -59.0167 58° Northeast 440 506 35,000  Level Moncton Center
08:26PM 49.9833 -58.8500 52° Northeast 440 506 35,000  Level Moncton Center
08:27PM 50.0500 -58.7167 58° Northeast 430 495 35,000 240 Level Moncton Center
08:28PM 50.1167 -58.5500 49° Northeast 430 495 35,500 480 Climbing Moncton Center
08:29PM 50.2000 -58.4000 58° Northeast 430 495 36,000 240 Climbing Moncton Center
08:30PM 50.2667 -58.2333 58° Northeast 440 506 36,000  Level Moncton Center
08:31PM 50.3333 -58.0667 60° Northeast 430 495 36,000  Level Moncton Center
08:32PM 50.3833 -57.9333 52° Northeast 420 483 36,000  Level Moncton Center
08:33PM 50.4667 -57.7667 59° Northeast 420 483 36,000  Level Moncton Center
08:34PM 50.5167 -57.6333 54° Northeast 420 483 36,000  Level Moncton Center
08:35PM 50.6000 -57.4500 59° Northeast 430 495 36,000  Level Moncton Center
08:36PM 50.6500 -57.3167 62° Northeast 430 495 36,000  Level Moncton Center
08:37PM 50.7167 -57.1167 49° Northeast 460 529 36,000  Level Moncton Center
08:38PM 50.8000 -56.9667 65° Northeast 440 506 36,000  Level Moncton Center
08:39PM 50.8500 -56.8000 52° Northeast 440 506 36,000  Level Moncton Center
08:40PM 50.9333 -56.6333 64° Northeast 440 506 36,000  Level Gander Center
08:41PM 50.9833 -56.4667 51° Northeast 440 506 36,000  Level Gander Center
08:42PM 51.0667 -56.3000 57° Northeast 440 506 36,000  Level Gander Center
08:43PM 51.1333 -56.1333 57° Northeast 440 506 36,000  Level Gander Center
08:44PM 51.2000 -55.9667 57° Northeast 440 506 36,000  Level Gander Center
08:45PM 51.2667 -55.8000 55° Northeast 450 518 36,000  Level Gander Center
08:46PM 51.3333 -55.6500 57° Northeast 450 518 36,000  Level Gander Center
08:47PM 51.4000 -55.4833 57° Northeast 450 518 36,000  Level Gander Center
08:48PM 51.4667 -55.3167 57° Northeast 450 518 36,000  Level Gander Center
08:49PM 51.5333 -55.1500 64° Northeast 450 518 36,000  Level Gander Center
08:50PM 51.5833 -54.9833 54° Northeast 450 518 36,000  Level Gander Center
08:51PM 51.6667 -54.8000 66° East 450 518 36,000  Level Gander Center
08:52PM 51.7167 -54.6167 48° Northeast 450 518 36,000  Level Gander Center
08:53PM 51.8000 -54.4667 66° East 450 518 36,000  Level Gander Center
08:54PM 51.8500 -54.2833 51° Northeast 450 518 36,000  Level Gander Center
08:55PM 51.9333 -54.1167 64° Northeast 450 518 36,000  Level Gander Center
08:56PM 51.9833 -53.9500 59° Northeast 450 518 36,000  Level Gander Center
08:57PM 52.0500 -53.7667 61° Northeast 450 518 36,000  Level Gander Center
08:58PM 52.1167 -53.5667 59° Northeast 450 518 36,000  Level Gander Center
08:59PM 52.1833 -53.3833 64° Northeast 460 529 36,000  Level Gander Center
09:00PM 52.2333 -53.2167 64° Northeast 460 529 36,000  Level Gander Center
09:01PM 52.2833 -53.0500 68° East 450 518 36,000  Level Gander Center
09:02PM 52.3333 -52.8500 69° East 460 529 36,000  Level Gander Center
09:03PM 52.3833 -52.6333 75° East 460 529 36,000  Level Gander Center
09:04PM 52.4167 -52.4333 75° East 450 518 36,000  Level Gander Center
09:05PM 52.4500 -52.2333 68° East 460 529 36,000  Level Gander Center
09:06PM 52.5000 -52.0333 68° East 460 529 36,000  Level Gander Center
09:07PM 52.5500 -51.8333 70° East 460 529 36,000  Level Gander Center
09:09PM 52.6333 -51.4500 68° East 460 529 36,000  Level Gander Center
09:10PM 52.6833 -51.2500 69° East 470 541 36,000  Level Gander Center
09:11PM 52.7333 -51.0333 72° East 470 541 36,000  Level Gander Center
09:12PM 52.7667 -50.8667 63° Northeast 470 541 36,000  Level Gander Center
09:13PM 52.8333 -50.6500 76° East 470 541 36,000  Level Gander Center
09:16PM 52.9333 -49.9833 67° East 390 449 36,000  Level Gander Center
09:17PM 52.9833 -49.7833 69° East 440 506 36,000  Level Gander Center
09:25PM 53.1975 -48.2643 70° East  Level FlightAware Approximate
09:26PM 53.2239 -48.0664 70° East  Level FlightAware Approximate
09:27PM 53.2499 -47.8682 70° East  Level FlightAware Approximate
09:28PM 53.2756 -47.6698 71° East  Level FlightAware Approximate
09:29PM 53.3229 -47.4841 71° East  Level FlightAware Approximate
09:30PM 53.3474 -47.2849 71° East  Level FlightAware Approximate
09:31PM 53.3714 -47.0854 71° East  Level FlightAware Approximate
09:32PM 53.3952 -46.8858 71° East  Level FlightAware Approximate
09:33PM 53.4186 -46.6859 71° East  Level FlightAware Approximate
09:34PM 53.4417 -46.4858 71° East  Level FlightAware Approximate
09:35PM 53.4681 -46.2868 71° East  Level FlightAware Approximate
09:36PM 53.5008 -46.0902 72° East  Level FlightAware Approximate
09:37PM 53.5332 -45.8934 72° East  Level FlightAware Approximate
09:38PM 53.5653 -45.6963 72° East  Level FlightAware Approximate
09:39PM 53.5970 -45.4989 72° East  Level FlightAware Approximate
09:40PM 53.6284 -45.3011 72° East  Level FlightAware Approximate
09:41PM 53.6595 -45.1031 72° East  Level FlightAware Approximate
09:42PM 53.6903 -44.9048 72° East  Level FlightAware Approximate
09:43PM 53.7207 -44.7062 73° East  Level FlightAware Approximate
09:44PM 53.7508 -44.5073 73° East  Level FlightAware Approximate
09:45PM 53.7806 -44.3082 73° East  Level FlightAware Approximate
09:46PM 53.8100 -44.1087 73° East  Level FlightAware Approximate
09:47PM 53.8391 -43.9090 73° East  Level FlightAware Approximate
09:48PM 53.8679 -43.7090 73° East  Level FlightAware Approximate
09:49PM 53.8963 -43.5087 73° East  Level FlightAware Approximate
09:50PM 53.9244 -43.3082 74° East  Level FlightAware Approximate
09:51PM 53.9522 -43.1074 74° East  Level FlightAware Approximate
09:52PM 53.9797 -42.9063 74° East  Level FlightAware Approximate
09:53PM 54.0068 -42.7050 74° East  Level FlightAware Approximate
09:54PM 54.0336 -42.5034 74° East  Level FlightAware Approximate
09:55PM 54.0600 -42.3015 74° East  Level FlightAware Approximate
09:56PM 54.0861 -42.0994 75° East  Level FlightAware Approximate
09:57PM 54.1118 -41.8970 75° East  Level FlightAware Approximate
09:58PM 54.1372 -41.6944 75° East  Level FlightAware Approximate
09:59PM 54.1623 -41.4915 75° East  Level FlightAware Approximate
10:00PM 54.1870 -41.2884 75° East  Level FlightAware Approximate
10:01PM 54.2114 -41.0851 75° East  Level FlightAware Approximate
10:02PM 54.2355 -40.8815 75° East  Level FlightAware Approximate
10:03PM 54.2592 -40.6776 76° East  Level FlightAware Approximate
10:04PM 54.2825 -40.4736 76° East  Level FlightAware Approximate
10:05PM 54.3055 -40.2693 76° East  Level FlightAware Approximate
10:06PM 54.3400 -40.0697 76° East  Level FlightAware Approximate
10:07PM 54.3742 -39.8697 76° East  Level FlightAware Approximate
10:08PM 54.4080 -39.6694 76° East  Level FlightAware Approximate
10:09PM 54.4415 -39.4688 77° East  Level FlightAware Approximate
10:10PM 54.4747 -39.2678 77° East  Level FlightAware Approximate
10:11PM 54.5075 -39.0666 77° East  Level FlightAware Approximate
10:12PM 54.5400 -38.8650 77° East  Level FlightAware Approximate
10:13PM 54.5722 -38.6631 77° East  Level FlightAware Approximate
10:14PM 54.6040 -38.4608 77° East  Level FlightAware Approximate
10:15PM 54.6355 -38.2583 78° East  Level FlightAware Approximate
10:16PM 54.6666 -38.0554 78° East  Level FlightAware Approximate
10:17PM 54.6975 -37.8522 78° East  Level FlightAware Approximate
10:18PM 54.7279 -37.6488 78° East  Level FlightAware Approximate
10:19PM 54.7581 -37.4450 78° East  Level FlightAware Approximate
10:20PM 54.7878 -37.2409 79° East  Level FlightAware Approximate
10:21PM 54.8173 -37.0365 79° East  Level FlightAware Approximate
10:22PM 54.8464 -36.8318 79° East  Level FlightAware Approximate
10:23PM 54.8751 -36.6269 79° East  Level FlightAware Approximate
10:24PM 54.9036 -36.4216 79° East  Level FlightAware Approximate
10:25PM 54.9316 -36.2161 79° East  Level FlightAware Approximate
10:26PM 54.9594 -36.0102 80° East  Level FlightAware Approximate
10:27PM 54.9867 -35.8041 80° East  Level FlightAware Approximate
10:28PM 55.0137 -35.5977 80° East  Level FlightAware Approximate
10:29PM 55.0404 -35.3910 80° East  Level FlightAware Approximate
10:30PM 55.0667 -35.1841 80° East  Level FlightAware Approximate
10:31PM 55.0927 -34.9768 81° East  Level FlightAware Approximate
10:32PM 55.1183 -34.7694 81° East  Level FlightAware Approximate
10:33PM 55.1436 -34.5616 81° East  Level FlightAware Approximate
10:34PM 55.1685 -34.3536 81° East  Level FlightAware Approximate
10:35PM 55.1931 -34.1453 81° East  Level FlightAware Approximate
10:36PM 55.2173 -33.9368 82° East  Level FlightAware Approximate
10:37PM 55.2411 -33.7280 82° East  Level FlightAware Approximate
10:38PM 55.2646 -33.5190 82° East  Level FlightAware Approximate
10:39PM 55.2877 -33.3097 82° East  Level FlightAware Approximate
10:40PM 55.3105 -33.1002 82° East  Level FlightAware Approximate
10:41PM 55.3329 -32.8904 82° East  Level FlightAware Approximate
10:42PM 55.3549 -32.6805 83° East  Level FlightAware Approximate
10:43PM 55.3766 -32.4702 83° East  Level FlightAware Approximate
10:44PM 55.3980 -32.2598 83° East  Level FlightAware Approximate
10:45PM 55.4189 -32.0491 83° East  Level FlightAware Approximate
10:46PM 55.4395 -31.8382 83° East  Level FlightAware Approximate
10:47PM 55.4598 -31.6271 84° East  Level FlightAware Approximate
10:48PM 55.4797 -31.4158 84° East  Level FlightAware Approximate
10:49PM 55.4992 -31.2042 84° East  Level FlightAware Approximate
10:50PM 55.5183 -30.9925 84° East  Level FlightAware Approximate
10:51PM 55.5371 -30.7805 84° East  Level FlightAware Approximate
10:52PM 55.5515 -30.5674 85° East  Level FlightAware Approximate
10:53PM 55.5655 -30.3541 85° East  Level FlightAware Approximate
10:54PM 55.5791 -30.1407 85° East  Level FlightAware Approximate
10:55PM 55.5924 -29.9271 85° East  Level FlightAware Approximate
10:56PM 55.6053 -29.7134 85° East  Level FlightAware Approximate
10:57PM 55.6178 -29.4996 86° East  Level FlightAware Approximate
10:58PM 55.6299 -29.2856 86° East  Level FlightAware Approximate
10:59PM 55.6417 -29.0715 86° East  Level FlightAware Approximate
11:00PM 55.6531 -28.8572 86° East  Level FlightAware Approximate
11:01PM 55.6641 -28.6429 86° East  Level FlightAware Approximate
11:02PM 55.6747 -28.4284 86° East  Level FlightAware Approximate
11:03PM 55.6850 -28.2138 87° East  Level FlightAware Approximate
11:04PM 55.6949 -27.9991 87° East  Level FlightAware Approximate
11:05PM 55.7044 -27.7843 87° East  Level FlightAware Approximate
11:06PM 55.7136 -27.5693 87° East  Level FlightAware Approximate
11:07PM 55.7223 -27.3543 87° East  Level FlightAware Approximate
11:08PM 55.7307 -27.1392 88° East  Level FlightAware Approximate
11:09PM 55.7388 -26.9240 88° East  Level FlightAware Approximate
11:10PM 55.7464 -26.7087 88° East  Level FlightAware Approximate
11:11PM 55.7537 -26.4934 88° East  Level FlightAware Approximate
11:12PM 55.7606 -26.2779 88° East  Level FlightAware Approximate
11:13PM 55.7671 -26.0624 89° East  Level FlightAware Approximate
11:14PM 55.7732 -25.8468 89° East  Level FlightAware Approximate
11:15PM 55.7790 -25.6311 89° East  Level FlightAware Approximate
11:16PM 55.7844 -25.4154 89° East  Level FlightAware Approximate
11:17PM 55.7894 -25.1996 89° East  Level FlightAware Approximate
11:18PM 55.7940 -24.9838 90° East  Level FlightAware Approximate
11:19PM 55.7982 -24.7679 90° East  Level FlightAware Approximate
11:20PM 55.8021 -24.5520 90° East  Level FlightAware Approximate
11:21PM 55.8056 -24.3360 90° East  Level FlightAware Approximate
11:22PM 55.8087 -24.1200 90° East  Level FlightAware Approximate
11:23PM 55.8114 -23.9040 91° East  Level FlightAware Approximate
11:24PM 55.8138 -23.6879 91° East  Level FlightAware Approximate
11:25PM 55.8158 -23.4718 91° East  Level FlightAware Approximate
11:26PM 55.8174 -23.2557 91° East  Level FlightAware Approximate
11:27PM 55.8186 -23.0396 91° East  Level FlightAware Approximate
11:28PM 55.8194 -22.8235 92° East  Level FlightAware Approximate
11:29PM 55.8199 -22.6073 92° East  Level FlightAware Approximate
11:30PM 55.8200 -22.3912 92° East  Level FlightAware Approximate
11:31PM 55.8197 -22.1751 92° East  Level FlightAware Approximate
11:32PM 55.8190 -21.9589 92° East  Level FlightAware Approximate
11:33PM 55.8180 -21.7428 92° East  Level FlightAware Approximate
11:34PM 55.8165 -21.5267 93° East  Level FlightAware Approximate
11:35PM 55.8147 -21.3106 93° East  Level FlightAware Approximate
11:36PM 55.8125 -21.0945 93° East  Level FlightAware Approximate
11:37PM 55.8100 -20.8785 93° East  Level FlightAware Approximate
11:38PM 55.8070 -20.6624 94° East  Level FlightAware Approximate
11:39PM 55.8037 -20.4464 94° East  Level FlightAware Approximate
11:40PM 55.8000 -20.2305 94° East  Level FlightAware Approximate
11:41PM 55.7944 -20.0147 94° East  Level FlightAware Approximate
11:42PM 55.7885 -19.7990 94° East  Level FlightAware Approximate
11:43PM 55.7822 -19.5833 94° East  Level FlightAware Approximate
11:44PM 55.7755 -19.3677 95° East  Level FlightAware Approximate
11:45PM 55.7685 -19.1522 95° East  Level FlightAware Approximate
11:46PM 55.7610 -18.9368 95° East  Level FlightAware Approximate
11:47PM 55.7532 -18.7215 95° East  Level FlightAware Approximate
11:48PM 55.7450 -18.5062 95° East  Level FlightAware Approximate
11:49PM 55.7365 -18.2910 96° East  Level FlightAware Approximate
11:50PM 55.7275 -18.0760 96° East  Level FlightAware Approximate
11:51PM 55.7182 -17.8610 96° East  Level FlightAware Approximate
11:52PM 55.7085 -17.6461 96° East  Level FlightAware Approximate
11:53PM 55.6985 -17.4314 96° East  Level FlightAware Approximate
11:54PM 55.6880 -17.2167 97° East  Level FlightAware Approximate
11:55PM 55.6772 -17.0022 97° East  Level FlightAware Approximate
11:56PM 55.6660 -16.7878 97° East  Level FlightAware Approximate
11:57PM 55.6545 -16.5735 97° East  Level FlightAware Approximate
11:58PM 55.6425 -16.3593 97° East  Level FlightAware Approximate
11:59PM 55.6302 -16.1453 98° East  Level FlightAware Approximate
12:00AM 55.6175 -15.9314 98° East  Level FlightAware Approximate
12:01AM 55.6045 -15.7177 98° East  Level FlightAware Approximate
12:02AM 55.5911 -15.5041 98° East  Level FlightAware Approximate
12:03AM 55.5773 -15.2906 99° East  Level FlightAware Approximate
12:04AM 55.5631 -15.0773 99° East  Level FlightAware Approximate
12:05AM 55.5486 -14.8642 99° East  Level FlightAware Approximate
12:06AM 55.5337 -14.6512 99° East  Level FlightAware Approximate
12:07AM 55.5184 -14.4383 99° East  Level FlightAware Approximate
12:08AM 55.5028 -14.2257 100° East  Level FlightAware Approximate
12:09AM 55.4868 -14.0132 100° East  Level FlightAware Approximate
12:10AM 55.4704 -13.8009 100° East  Level FlightAware Approximate
12:11AM 55.4537 -13.5887 100° East  Level FlightAware Approximate
12:12AM 55.4366 -13.3768 100° East  Level FlightAware Approximate
12:13AM 55.4191 -13.1650 101° East  Level FlightAware Approximate
12:14AM 55.4012 -12.9535 101° East  Level FlightAware Approximate
12:15AM 55.3830 -12.7421 101° East  Level FlightAware Approximate
12:16AM 55.3645 -12.5309 101° East  Level FlightAware Approximate
12:17AM 55.3455 -12.3199 102° East  Level FlightAware Approximate
12:18AM 55.3262 -12.1091 102° East  Level FlightAware Approximate
12:19AM 55.3066 -11.8985 102° East  Level FlightAware Approximate
12:20AM 55.2866 -11.6882 102° East  Level FlightAware Approximate
12:21AM 55.2662 -11.4780 102° East  Level FlightAware Approximate
12:22AM 55.2454 -11.2681 103° East  Level FlightAware Approximate
12:23AM 55.2243 -11.0584 103° East  Level FlightAware Approximate
12:24AM 55.2029 -10.8489 103° East  Level FlightAware Approximate
12:25AM 55.1811 -10.6396 103° East  Level FlightAware Approximate
12:26AM 55.1589 -10.4306 104° East  Level FlightAware Approximate
12:27AM 55.1363 -10.2218 104° East  Level FlightAware Approximate
12:28AM 55.1134 -10.0132 104° East  Level FlightAware Approximate
12:29AM 55.0894 -9.8052 105° East  Level FlightAware Approximate
12:30AM 55.0650 -9.5974 105° East  Level FlightAware Approximate
12:31AM 55.0402 -9.3899 105° East  Level FlightAware Approximate
12:32AM 55.0151 -9.1826 105° East  Level FlightAware Approximate
12:33AM 54.9896 -8.9756 106° East  Level FlightAware Approximate
12:34AM 54.9638 -8.7689 106° East  Level FlightAware Approximate
12:35AM 54.9376 -8.5624 106° East  Level FlightAware Approximate
12:36AM 54.9111 -8.3562 107° East  Level FlightAware Approximate
12:37AM 54.8843 -8.1502 107° East  Level FlightAware Approximate
12:38AM 54.8570 -7.9446 107° East  Level FlightAware Approximate
12:39AM 54.8295 -7.7392 108° East  Level FlightAware Approximate
12:40AM 54.8016 -7.5341 108° East  Level FlightAware Approximate
12:41AM 54.7733 -7.3293 108° East  Level FlightAware Approximate
12:42AM 54.7940 -7.1265 110° East  Level FlightAware Approximate
12:43AM 54.7632 -6.9228 110° East  Level FlightAware Approximate
12:44AM 54.7321 -6.7194 111° Southeast  Level FlightAware Approximate
12:45AM 54.7006 -6.5164 111° Southeast  Level FlightAware Approximate
12:46AM 54.6688 -6.3137 112° Southeast  Level FlightAware Approximate
12:47AM 54.6367 -6.1113 112° Southeast  Level FlightAware Approximate
12:48AM 54.6042 -5.9092 113° Southeast  Level FlightAware Approximate
12:49AM 54.5714 -5.7074 114° Southeast  Level FlightAware Approximate
12:50AM 54.5382 -5.5060 114° Southeast  Level FlightAware Approximate
12:51AM 54.5047 -5.3049 115° Southeast  Level FlightAware Approximate
12:52AM 54.4709 -5.1041 116° Southeast  Level FlightAware Approximate
12:53AM 54.4368 -4.9037 118° Southeast  Level FlightAware Approximate
12:54AM 54.4023 -4.7036 119° Southeast  Level FlightAware Approximate
12:55AM 54.3675 -4.5038 121° Southeast  Level FlightAware Approximate
12:56AM 54.3337 -4.3037 123° Southeast  Level FlightAware Approximate
12:57AM 54.2979 -4.1048 126° Southeast  Level FlightAware Approximate
12:58AM 54.2618 -3.9062 131° Southeast  Level FlightAware Approximate
12:59AM 54.2254 -3.7079 137° Southeast  Level FlightAware Approximate
01:00AM 54.1951 -3.5069 148° Southeast  Level FlightAware Approximate
01:01AM 54.1580 -3.3094 165° South  Level FlightAware Approximate
01:02AM 54.1206 -3.1121 192° South  Level FlightAware Approximate
01:03AM 54.0829 -2.9153 222° Southwest  Level FlightAware Approximate
01:04AM 54.0448 -2.7188 243° Southwest  Level FlightAware Approximate
01:05AM 54.0064 -2.5227 255° West  Level FlightAware Approximate
01:11AM 53.8982 -3.1938 108° East 427 491 39,000  Level FlightAware ADS-B
01:11AM 53.8800 -3.0971 108° East 428 493 39,000  Level FlightAware ADS-B
01:12AM 53.8612 -2.9979 108° East 428 493 39,000  Level FlightAware ADS-B
01:13AM 53.8167 -2.7662 108° East 428 493 39,000  Level FlightAware ADS-B
01:13AM 53.7956 -2.6570 108° East 428 493 39,000  Level FlightAware ADS-B
01:14AM 53.7710 -2.5311 108° East 429 494 39,000  Level FlightAware ADS-B
01:15AM 53.7431 -2.3885 108° East 429 494 39,000  Level FlightAware ADS-B
01:15AM 53.7235 -2.2896 109° East 429 494 39,000  Level FlightAware ADS-B
01:16AM 53.7046 -2.1948 109° East 429 494 39,000  Level FlightAware ADS-B
01:16AM 53.6826 -2.0852 109° East 430 495 39,000  Level FlightAware ADS-B
01:17AM 53.6636 -1.9903 109° East 430 495 39,000  Level FlightAware ADS-B
01:17AM 53.6444 -1.8950 109° East 429 494 39,000  Level FlightAware ADS-B
01:18AM 53.6250 -1.7997 109° East 430 495 39,000  Level FlightAware ADS-B
01:18AM 53.6052 -1.7038 109° East 430 495 39,000  Level FlightAware ADS-B
01:19AM 53.5849 -1.6047 109° East 430 495 39,000  Level FlightAware ADS-B
01:19AM 53.5637 -1.5022 109° East 429 494 39,000  Level FlightAware ADS-B
01:20AM 53.5441 -1.4080 109° East 428 493 39,000  Level FlightAware ADS-B
01:20AM 53.5245 -1.3142 109° East 427 491 39,000  Level FlightAware ADS-B
01:21AM 53.5037 -1.2150 109° East 426 490 39,000  Level FlightAware ADS-B
01:22AM 53.4837 -1.1201 110° East 424 488 39,000  Level FlightAware ADS-B
01:22AM 53.4638 -1.0269 110° East 424 488 39,000  Level FlightAware ADS-B
01:23AM 53.4330 -0.8836 110° East 423 487 39,000  Level FlightAware ADS-B
01:23AM 53.4121 -0.7864 110° East 423 487 39,000  Level FlightAware ADS-B
01:24AM 53.3855 -0.6635 110° East 419 482 39,000  Level FlightAware ADS-B
01:25AM 53.3656 -0.5719 110° East 419 482 39,000  Level FlightAware ADS-B
01:25AM 53.3453 -0.4798 110° East 418 481 39,000  Level FlightAware ADS-B
01:26AM 53.3247 -0.3862 110° East 418 481 39,000  Level FlightAware ADS-B
01:26AM 53.3029 -0.2879 110° East 417 480 39,000  Level FlightAware ADS-B
01:27AM 53.2825 -0.1967 110° East 418 481 39,000  Level FlightAware ADS-B
01:27AM 53.2620 -0.1051 111° Southeast 417 480 39,000  Level FlightAware ADS-B
01:28AM 53.2410 -0.0119 111° Southeast 418 481 39,000  Level FlightAware ADS-B
01:28AM 53.2183 0.0885 111° Southeast 418 481 39,000  Level FlightAware ADS-B
01:29AM 53.1977 0.1785 111° Southeast 417 480 39,000  Level FlightAware ADS-B
01:29AM 53.1768 0.2696 111° Southeast 417 480 39,000  Level FlightAware ADS-B
01:30AM 53.1558 0.3601 111° Southeast 418 481 39,000  Level FlightAware ADS-B
01:30AM 53.1347 0.4511 111° Southeast 418 481 39,000  Level FlightAware ADS-B
01:31AM 53.1132 0.5438 111° Southeast 418 481 39,000  Level FlightAware ADS-B
01:31AM 53.1038 0.5852 108° East 418 481 39,000  Level FlightAware ADS-B
01:32AM 53.0835 0.6900 105° East 419 482 39,000  Level FlightAware ADS-B
01:32AM 53.0717 0.7654 103° East 419 482 39,000  Level FlightAware ADS-B
01:32AM 53.0581 0.8605 103° East 421 484 39,000  Level FlightAware ADS-B
01:33AM 53.0449 0.9567 103° East 421 484 39,000 -420 Level FlightAware ADS-B
01:33AM 53.0317 1.0516 103° East 422 486 38,600 -900 Descending FlightAware ADS-B
01:34AM 53.0183 1.1458 103° East 416 479 38,100 -1,020 Descending FlightAware ADS-B
01:34AM 53.0051 1.2390 104° East 410 472 37,600 -1,020 Descending FlightAware ADS-B
01:35AM 52.9915 1.3307 104° East 402 463 37,100 -1,320 Descending FlightAware ADS-B
01:36AM 52.9766 1.4317 104° East 405 466 36,200 -1,860 Descending FlightAware ADS-B
01:36AM 52.9623 1.5274 104° East 412 474 35,100 -1,980 Descending FlightAware ADS-B
01:37AM 52.9484 1.6200 104° East 419 482 34,200 -1,140 Descending FlightAware ADS-B
01:37AM 52.9342 1.7147 104° East 427 491 34,000 -600 Descending FlightAware ADS-B
01:38AM 52.9189 1.8160 104° East 432 497 33,600 -1,740 Descending FlightAware ADS-B
01:38AM 52.8928 1.9852 104° East 431 496 31,600 -2,220 Descending FlightAware ADS-B
01:39AM 52.8719 2.1198 104° East 419 482 30,100 -2,160 Descending FlightAware ADS-B
01:40AM 52.8575 2.2127 106° East 410 472 29,000 -2,160 Descending FlightAware ADS-B
01:47AM 52.6357 3.4780 114° Southeast  Level FlightAware Approximate
01:48AM 52.5891 3.6537 113° Southeast  Level FlightAware Approximate
01:49AM 52.5427 3.8294 113° Southeast  Level FlightAware Approximate
01:50AM 52.4974 4.0058 112° Southeast  Level FlightAware Approximate
01:51AM 52.4535 4.1828 113° Southeast  Level FlightAware Approximate
01:52AM 52.4071 4.3580 114° Southeast  Level FlightAware Approximate
01:53AM 52.3592 4.5299 113° Southeast  Level FlightAware Approximate
01:54AM 52.3130 4.7048 97° East  Level FlightAware Approximate
01:55AM 52.2990 4.8938 291° West  Level Estimated
01:56AM 52.5761 3.7026 113° Southeast  Level FlightAware Approximate
01:57AM 52.5308 3.8791 113° Southeast  Level FlightAware Approximate
01:58AM 52.4853 4.0552 113° Southeast  Level FlightAware Approximate
01:59AM 52.4395 4.2309 113° Southeast  Level FlightAware Approximate
02:00AM 52.3935 4.4063 113° Southeast  Level FlightAware Approximate
02:01AM 52.3472 4.5813 115° Southeast  Level FlightAware Approximate
02:02AM 52.3000 4.7500 45° Northeast  Level FlightAware Approximate
02:03AM 52.3829 4.8839 225° Southwest  Level Estimated
02:04AM 52.3000 4.7500 45° Northeast  Level Estimated
02:05AM 52.3829 4.8839 225° Southwest  Level Estimated
02:06AM 52.3000 4.7500 225° Southwest  Level Estimated